Аэропорт: Шымкент. Шымкент

ICAO: UAII

METAR:
2022-06-26 11:00:00
UAII 261100Z 26004MPS CAVOK 40/05 Q1003 NOSIG RMK QFE717/0957
METAR:
2022-06-26 05:01:00
TAF UAII 260501Z 2606/2706 26003G08MPS 9999 SCT040 TX40/2610Z TN23/2701Z TEMPO 2606/2616 29003G08MPS TEMPO 2616/2703 14003G08MPS SCT050CB